Time;durP1;ratioP1;P1;durP2;ratioP2;P2;SDS_P1;SDS_P2;PMS_P1;PMS_P2;Temp;Humidity;BMP_temperature;BMP_pressure;BME280_temperature;BME280_humidity;BME280_pressure;Samples;Min_cycle;Max_cycle;Signal;HPM_P1;HPM_P2
2021/08/23 00:00:31;;;;;;;6.75;3.78;;;;;;;16.66;94.91;96672.06;4977073;28;20207;-71
2021/08/23 00:02:58;;;;;;;11.57;3.95;;;;;;;16.83;95.06;96672.50;4976565;28;20195;-69
2021/08/23 00:05:25;;;;;;;7.60;3.67;;;;;;;16.73;94.65;96664.09;4975839;28;20223;-71
2021/08/23 00:07:52;;;;;;;7.45;3.85;;;;;;;16.74;93.93;96657.75;4976505;28;20214;-71
2021/08/23 00:10:18;;;;;;;9.00;3.88;;;;;;;16.79;93.85;96663.25;4976002;28;20219;-69
2021/08/23 00:12:44;;;;;;;7.57;3.88;;;;;;;16.82;93.47;96665.53;4976429;28;20230;-71
2021/08/23 00:15:14;;;;;;;7.70;3.60;;;;;;;16.83;93.79;96659.19;4975793;28;20262;-72
2021/08/23 00:17:40;;;;;;;6.32;3.72;;;;;;;16.74;93.52;96660.41;4976346;28;20210;-70
2021/08/23 00:20:13;;;;;;;7.40;3.65;;;;;;;16.83;93.69;96653.88;4976107;28;20207;-69
2021/08/23 00:22:48;;;;;;;11.30;3.92;;;;;;;16.73;94.28;96656.09;4976398;28;20663;-71
2021/08/23 00:25:15;;;;;;;8.35;4.03;;;;;;;16.66;94.76;96653.44;4975265;28;20226;-70
2021/08/23 00:27:42;;;;;;;11.30;3.55;;;;;;;16.71;94.03;96664.31;4976326;28;20207;-69
2021/08/23 00:30:09;;;;;;;8.13;4.10;;;;;;;16.74;94.68;96653.25;4976681;28;20679;-70
2021/08/23 00:32:36;;;;;;;7.40;3.90;;;;;;;16.65;94.45;96653.66;4975548;28;20231;-70
2021/08/23 00:35:03;;;;;;;7.70;4.22;;;;;;;16.62;94.78;96648.72;4975653;28;20227;-68
2021/08/23 00:37:31;;;;;;;7.47;3.70;;;;;;;16.83;94.72;96646.69;4973523;28;20220;-70
2021/08/23 00:39:58;;;;;;;7.68;4.10;;;;;;;16.65;94.92;96648.34;4975853;28;20196;-70
2021/08/23 00:42:24;;;;;;;8.43;4.47;;;;;;;16.61;94.92;96641.75;4975526;28;20207;-71
2021/08/23 00:44:51;;;;;;;7.07;3.80;;;;;;;16.66;94.86;96649.94;4975841;28;20234;-69
2021/08/23 00:47:17;;;;;;;8.23;3.95;;;;;;;16.64;94.39;96636.84;4974858;28;20210;-70
2021/08/23 00:49:44;;;;;;;9.88;3.70;;;;;;;16.60;94.10;96645.47;4975222;28;20207;-69
2021/08/23 00:52:11;;;;;;;9.80;3.53;;;;;;;16.61;94.17;96639.09;4975489;28;20219;-69
2021/08/23 00:54:39;;;;;;;7.25;3.80;;;;;;;16.78;94.63;96643.00;4975881;28;20235;-69
2021/08/23 00:57:07;;;;;;;7.35;4.10;;;;;;;16.74;94.43;96641.78;4974275;28;21020;-71
2021/08/23 00:59:37;;;;;;;7.68;3.92;;;;;;;16.76;94.41;96639.72;4976064;28;20211;-68
2021/08/23 01:02:10;;;;;;;10.73;3.70;;;;;;;16.89;93.64;96639.72;4975787;28;20196;-71
2021/08/23 01:04:42;;;;;;;7.50;3.78;;;;;;;16.78;94.27;96637.69;4975478;28;20223;-70
2021/08/23 01:07:12;;;;;;;5.32;3.42;;;;;;;16.77;93.93;96646.69;4973881;28;20210;-70
2021/08/23 01:09:43;;;;;;;6.95;3.58;;;;;;;16.79;93.79;96647.28;4975982;28;20210;-71
2021/08/23 01:12:12;;;;;;;10.73;3.85;;;;;;;16.61;94.19;96657.72;4974750;28;20589;-71
2021/08/23 01:14:38;;;;;;;6.53;3.50;;;;;;;16.43;94.50;96646.84;4975127;28;20234;-72
2021/08/23 01:17:05;;;;;;;9.00;3.95;;;;;;;16.59;93.57;96649.94;4976796;28;20210;-70
2021/08/23 01:19:32;;;;;;;10.93;4.25;;;;;;;16.60;93.69;96650.78;4975920;28;20275;-70
2021/08/23 01:22:02;;;;;;;9.75;4.10;;;;;;;16.79;93.77;96645.47;4975271;28;20196;-71
2021/08/23 01:24:31;;;;;;;9.32;4.35;;;;;;;16.74;93.68;96642.59;4975108;28;20228;-70
2021/08/23 01:27:01;;;;;;;9.32;3.95;;;;;;;16.72;93.78;96649.16;4974502;28;21134;-71
2021/08/23 01:29:32;;;;;;;9.32;3.78;;;;;;;16.39;92.77;96644.81;4974717;28;20631;-71
2021/08/23 01:32:13;;;;;;;7.95;4.15;;;;;;;16.61;92.61;96641.75;4975647;28;20227;-70
2021/08/23 01:34:41;;;;;;;8.23;4.07;;;;;;;16.36;94.38;96647.91;4975360;28;20351;-69
2021/08/23 01:37:07;;;;;;;7.75;4.22;;;;;;;16.36;94.35;96646.03;4972322;28;20207;-68
2021/08/23 01:39:35;;;;;;;7.40;3.63;;;;;;;16.40;93.96;96643.81;4975073;28;20214;-72
2021/08/23 01:42:02;;;;;;;6.72;3.88;;;;;;;16.38;93.80;96632.53;4975562;28;20207;-70
2021/08/23 01:44:29;;;;;;;7.10;4.13;;;;;;;16.40;93.75;96641.16;4975207;28;20223;-70
2021/08/23 01:46:55;;;;;;;8.25;4.53;;;;;;;16.44;94.22;96635.19;4974069;28;21230;-70
2021/08/23 01:49:23;;;;;;;14.73;4.30;;;;;;;16.62;94.09;96633.59;4975334;28;20301;-69
2021/08/23 01:51:50;;;;;;;10.77;4.05;;;;;;;16.52;95.50;96633.19;4975952;28;20210;-69
2021/08/23 01:54:18;;;;;;;13.02;4.28;;;;;;;16.66;95.39;96639.31;4974583;28;20261;-71
2021/08/23 01:56:45;;;;;;;12.00;4.22;;;;;;;16.58;95.86;96632.34;4974358;28;20729;-69
2021/08/23 01:59:11;;;;;;;8.60;4.00;;;;;;;16.67;96.83;96633.78;4975336;28;20219;-70
2021/08/23 02:01:38;;;;;;;8.98;4.28;;;;;;;16.59;97.47;96633.19;4975509;28;20207;-71
2021/08/23 02:04:05;;;;;;;10.55;4.47;;;;;;;16.74;97.25;96633.81;4975590;28;20230;-68
2021/08/23 02:06:33;;;;;;;7.43;4.00;;;;;;;17.02;95.95;96634.38;4974282;28;20199;-69
2021/08/23 02:09:00;;;;;;;13.05;4.05;;;;;;;16.88;95.74;96633.59;4974633;28;21282;-67
2021/08/23 02:11:26;;;;;;;13.65;4.50;;;;;;;16.89;96.00;96639.72;4974439;28;20207;-70
2021/08/23 02:13:54;;;;;;;6.68;3.92;;;;;;;16.97;96.33;96631.50;4974737;28;20224;-69
2021/08/23 02:16:21;;;;;;;7.55;4.07;;;;;;;16.90;97.01;96636.03;4974702;28;20289;-70
2021/08/23 02:18:48;;;;;;;7.22;3.88;;;;;;;16.81;96.63;96634.59;4974815;28;20210;-71
2021/08/23 02:21:14;;;;;;;8.00;4.05;;;;;;;16.93;96.45;96622.28;4978159;28;20211;-70
2021/08/23 02:23:43;;;;;;;9.80;3.78;;;;;;;17.09;96.79;96626.19;4977978;28;20213;-70
2021/08/23 02:26:09;;;;;;;7.07;3.88;;;;;;;16.88;97.09;96622.94;4976766;28;20203;-71
2021/08/23 02:28:36;;;;;;;8.73;3.92;;;;;;;17.01;97.10;96616.78;4973566;28;20204;-70
2021/08/23 02:31:02;;;;;;;8.43;3.95;;;;;;;16.95;97.12;96628.25;4977837;28;20207;-70
2021/08/23 02:33:28;;;;;;;6.25;4.15;;;;;;;16.97;96.68;96623.53;4977464;28;20726;-71
2021/08/23 02:35:55;;;;;;;8.02;3.70;;;;;;;17.01;97.16;96627.44;4976698;28;20219;-70
2021/08/23 02:38:21;;;;;;;9.07;4.60;;;;;;;16.96;97.61;96629.91;4976212;28;20215;-69
2021/08/23 02:40:49;;;;;;;8.65;4.32;;;;;;;17.15;96.70;96629.84;4977974;28;20203;-71
2021/08/23 02:43:16;;;;;;;7.20;3.92;;;;;;;16.99;95.88;96635.59;4977914;28;20242;-70
2021/08/23 02:45:43;;;;;;;8.00;4.10;;;;;;;17.15;96.02;96633.31;4976389;28;20226;-69
2021/08/23 02:48:09;;;;;;;10.60;4.15;;;;;;;17.13;96.01;96630.06;4978125;28;20203;-70
2021/08/23 02:50:36;;;;;;;6.40;3.88;;;;;;;17.18;96.01;96630.28;4977590;28;20207;-70
2021/08/23 02:53:02;;;;;;;7.15;4.07;;;;;;;17.08;96.44;96632.53;4977781;28;20230;-70
2021/08/23 02:55:29;;;;;;;9.32;4.00;;;;;;;17.11;96.45;96640.09;4976376;28;20321;-69
2021/08/23 02:57:56;;;;;;;10.88;3.90;;;;;;;17.22;96.81;96642.13;4977482;28;20206;-69
2021/08/23 03:00:23;;;;;;;8.23;3.92;;;;;;;17.09;96.47;96644.81;4976618;28;20211;-71
2021/08/23 03:02:49;;;;;;;8.88;3.85;;;;;;;17.06;96.32;96638.28;4978453;28;20293;-69
2021/08/23 03:05:16;;;;;;;5.60;3.60;;;;;;;17.01;96.59;96635.41;4976692;28;20234;-70
2021/08/23 03:07:42;;;;;;;5.60;3.60;;;;;;;17.04;96.09;96640.31;4976625;28;20211;-71
2021/08/23 03:10:09;;;;;;;11.07;4.25;;;;;;;17.00;97.58;96631.13;4977558;28;20199;-70
2021/08/23 03:12:36;;;;;;;6.05;3.67;;;;;;;17.16;96.27;96629.66;4977372;28;20227;-69
2021/08/23 03:15:04;;;;;;;8.60;3.47;;;;;;;17.34;96.72;96629.84;4976642;28;20227;-70
2021/08/23 03:17:31;;;;;;;8.40;3.63;;;;;;;17.17;96.20;96638.44;4976831;28;20215;-71
2021/08/23 03:19:57;;;;;;;6.05;3.40;;;;;;;17.11;97.09;96626.78;4977189;28;20582;-71
2021/08/23 03:22:24;;;;;;;7.93;3.60;;;;;;;17.11;94.53;96629.44;4977048;28;20236;-69
2021/08/23 03:24:50;;;;;;;6.40;3.53;;;;;;;17.09;95.66;96636.84;4977311;28;20230;-70
2021/08/23 03:27:17;;;;;;;6.43;3.42;;;;;;;16.86;95.45;96634.81;4976379;28;20199;-71
2021/08/23 03:29:45;;;;;;;6.50;3.05;;;;;;;16.83;94.65;96640.56;4976585;28;20206;-70
2021/08/23 03:32:13;;;;;;;4.47;3.10;;;;;;;17.11;94.50;96634.78;4976707;28;20203;-70
2021/08/23 03:34:40;;;;;;;6.18;3.60;;;;;;;16.92;96.29;96640.13;4976860;28;20258;-70
2021/08/23 03:37:06;;;;;;;7.65;3.35;;;;;;;16.91;94.95;96641.16;4973411;28;20207;-71
2021/08/23 03:39:33;;;;;;;7.57;3.63;;;;;;;16.99;93.82;96640.13;4977094;28;20211;-70
2021/08/23 03:41:59;;;;;;;8.55;3.60;;;;;;;17.01;95.07;96635.41;4976612;28;20199;-70
2021/08/23 03:44:26;;;;;;;11.27;3.90;;;;;;;17.01;97.10;96635.41;4976369;28;20786;-71
2021/08/23 03:46:53;;;;;;;10.63;3.50;;;;;;;16.96;96.90;96636.03;4976078;28;20207;-69
2021/08/23 03:49:21;;;;;;;8.40;3.83;;;;;;;17.24;96.58;96637.44;4976971;28;20769;-71
2021/08/23 03:51:48;;;;;;;4.88;3.40;;;;;;;16.94;95.16;96638.09;4976439;28;20214;-70
2021/08/23 03:54:15;;;;;;;15.57;5.78;;;;;;;17.00;95.98;96633.78;4976359;28;20242;-69
2021/08/23 03:56:41;;;;;;;8.90;3.70;;;;;;;17.14;95.23;96633.53;4975865;28;20955;-69
2021/08/23 03:59:08;;;;;;;6.43;3.63;;;;;;;17.21;94.63;96634.38;4976585;28;20203;-70
2021/08/23 04:01:35;;;;;;;9.60;3.63;;;;;;;17.10;96.51;96635.78;4976636;28;20211;-71
2021/08/23 04:04:02;;;;;;;7.50;3.60;;;;;;;17.03;96.11;96642.19;4976757;28;20230;-70
2021/08/23 04:06:30;;;;;;;6.75;3.53;;;;;;;17.22;96.25;96628.81;4973106;28;20578;-71
2021/08/23 04:08:56;;;;;;;10.18;3.63;;;;;;;17.15;95.60;96640.50;4976316;28;20765;-70
2021/08/23 04:11:23;;;;;;;6.70;3.70;;;;;;;17.15;96.20;96633.31;4976477;28;20214;-71
2021/08/23 04:13:49;;;;;;;7.70;3.40;;;;;;;17.09;96.48;96639.50;4975918;28;20223;-70
2021/08/23 04:16:19;;;;;;;6.70;3.20;;;;;;;17.36;95.89;96638.47;4975865;28;20204;-70
2021/08/23 04:18:45;;;;;;;7.00;3.33;;;;;;;17.12;95.62;96644.41;4976777;28;20281;-70
2021/08/23 04:21:12;;;;;;;4.97;3.35;;;;;;;17.06;97.10;96643.59;4976105;28;20205;-70
2021/08/23 04:23:40;;;;;;;8.90;4.07;;;;;;;17.26;96.70;96642.56;4976200;28;20230;-69
2021/08/23 04:26:06;;;;;;;8.13;3.80;;;;;;;17.07;95.30;96642.56;4975125;28;20208;-71
2021/08/23 04:28:33;;;;;;;8.93;4.18;;;;;;;17.10;95.08;96646.44;4976021;28;20211;-70
2021/08/23 04:30:59;;;;;;;6.93;3.70;;;;;;;17.16;96.04;96650.94;4975746;28;20697;-70
2021/08/23 04:33:26;;;;;;;8.35;4.50;;;;;;;17.19;96.11;96644.38;4975698;28;20914;-70
2021/08/23 04:35:52;;;;;;;9.88;4.47;;;;;;;17.17;95.92;96649.94;4974845;28;20432;-73
2021/08/23 04:38:19;;;;;;;10.00;4.22;;;;;;;17.22;96.51;96644.81;4975502;28;20219;-72
2021/08/23 04:40:47;;;;;;;10.23;4.63;;;;;;;17.43;96.67;96654.41;4975126;28;20301;-72
2021/08/23 04:43:13;;;;;;;8.80;3.90;;;;;;;17.19;96.84;96658.50;4974876;28;20731;-73
2021/08/23 04:45:40;;;;;;;7.00;4.20;;;;;;;17.27;96.59;96654.84;4975135;28;20258;-71
2021/08/23 04:48:07;;;;;;;12.45;4.70;;;;;;;17.21;96.84;96655.66;4975634;28;20204;-72
2021/08/23 04:50:33;;;;;;;10.95;4.88;;;;;;;17.33;95.73;96652.16;4975882;28;20204;-70
2021/08/23 04:53:00;;;;;;;11.32;4.65;;;;;;;17.30;95.29;96657.94;4975055;28;20207;-71
2021/08/23 04:55:26;;;;;;;6.97;4.05;;;;;;;17.19;95.89;96657.72;4974908;28;21386;-70
2021/08/23 04:57:54;;;;;;;6.70;3.65;;;;;;;17.45;95.73;96658.50;4974926;28;20207;-70
2021/08/23 05:00:21;;;;;;;6.40;3.13;;;;;;;16.90;95.76;96654.66;4975129;28;20199;-69
2021/08/23 05:02:47;;;;;;;9.18;3.47;;;;;;;17.24;95.44;96661.41;4975850;28;20202;-71
2021/08/23 05:05:14;;;;;;;7.88;3.40;;;;;;;17.33;96.14;96654.84;4974618;28;20270;-70
2021/08/23 05:07:40;;;;;;;12.05;3.42;;;;;;;17.41;95.35;96659.13;4974629;28;20207;-70
2021/08/23 05:10:08;;;;;;;6.47;3.63;;;;;;;17.50;95.08;96656.03;4975116;28;20659;-69
2021/08/23 05:12:34;;;;;;;13.73;3.55;;;;;;;17.30;96.71;96659.78;4973276;28;20297;-70
2021/08/23 05:15:02;;;;;;;6.25;3.60;;;;;;;17.37;96.41;96664.03;4974379;28;20238;-71
2021/08/23 05:17:29;;;;;;;6.93;3.42;;;;;;;17.29;96.27;96661.59;4976363;28;20214;-70
2021/08/23 05:19:55;;;;;;;7.53;3.55;;;;;;;17.39;97.05;96664.66;4975556;28;20207;-70
2021/08/23 05:22:24;;;;;;;6.50;3.60;;;;;;;17.42;96.04;96664.25;4975021;28;20214;-70
2021/08/23 05:24:50;;;;;;;9.55;3.80;;;;;;;17.22;95.24;96657.28;4975480;28;20315;-71
2021/08/23 05:27:17;;;;;;;7.00;3.47;;;;;;;17.23;95.51;96658.94;4974519;28;20203;-71
2021/08/23 05:29:43;;;;;;;9.32;4.13;;;;;;;17.41;96.32;96656.47;4975072;28;20210;-69
2021/08/23 05:32:16;;;;;;;6.93;3.67;;;;;;;17.61;96.05;96660.72;4974625;28;20207;-69
2021/08/23 05:34:42;;;;;;;8.90;3.90;;;;;;;17.46;96.06;96660.13;4975276;28;20227;-69
2021/08/23 05:37:09;;;;;;;6.38;3.75;;;;;;;17.44;94.76;96662.19;4974951;28;20210;-71
2021/08/23 05:39:35;;;;;;;7.80;4.00;;;;;;;17.51;95.26;96663.00;4975272;28;20210;-69
2021/08/23 05:42:02;;;;;;;10.55;4.03;;;;;;;17.40;94.08;96666.31;4974421;28;20215;-69
2021/08/23 05:44:28;;;;;;;10.75;4.32;;;;;;;17.49;96.38;96664.22;4975230;28;20273;-70
2021/08/23 05:46:55;;;;;;;12.23;3.85;;;;;;;17.12;95.70;96660.38;4974233;28;20218;-70
2021/08/23 05:49:22;;;;;;;7.72;3.80;;;;;;;17.64;96.46;96667.47;4974814;28;20207;-70
2021/08/23 05:51:49;;;;;;;9.73;4.30;;;;;;;17.36;97.36;96662.44;4974867;28;20200;-70
2021/08/23 05:54:15;;;;;;;8.18;4.13;;;;;;;17.36;95.39;96669.59;4974336;28;20234;-70
2021/08/23 05:56:42;;;;;;;8.23;3.85;;;;;;;17.56;96.47;96665.84;4973601;28;20579;-70
2021/08/23 05:59:08;;;;;;;8.38;4.47;;;;;;;17.60;95.91;96667.06;4974585;28;20559;-70
2021/08/23 06:01:35;;;;;;;8.93;4.32;;;;;;;17.73;95.98;96667.84;4974520;28;20213;-70
2021/08/23 06:04:01;;;;;;;10.43;4.85;;;;;;;17.71;96.54;96663.75;4974617;28;20219;-70
2021/08/23 06:06:29;;;;;;;11.57;4.65;;;;;;;18.07;96.39;96661.34;4973875;28;20210;-70
2021/08/23 06:08:56;;;;;;;8.43;4.55;;;;;;;17.84;95.27;96663.72;4975028;28;20203;-71
2021/08/23 06:11:22;;;;;;;7.93;4.18;;;;;;;17.88;96.37;96664.91;4974288;28;20203;-70
2021/08/23 06:13:49;;;;;;;10.65;4.97;;;;;;;17.79;95.74;96666.19;4974427;28;20234;-70
2021/08/23 06:16:15;;;;;;;12.30;4.85;;;;;;;17.89;97.23;96670.03;4974207;28;20214;-71
2021/08/23 06:18:41;;;;;;;13.68;5.25;;;;;;;17.89;96.41;96666.56;4975158;28;20203;-71
2021/08/23 06:21:09;;;;;;;12.70;4.82;;;;;;;18.13;95.77;96665.84;4974405;28;20203;-70
2021/08/23 06:23:37;;;;;;;10.02;4.65;;;;;;;18.10;97.17;96668.91;4974193;28;20781;-70
2021/08/23 06:26:04;;;;;;;11.65;5.38;;;;;;;18.08;96.90;96671.00;4972370;28;20249;-70
2021/08/23 06:28:30;;;;;;;7.65;5.05;;;;;;;18.04;96.39;96667.94;4974007;28;20203;-70
2021/08/23 06:30:57;;;;;;;8.38;4.68;;;;;;;18.10;96.05;96675.09;4973759;28;20207;-70
2021/08/23 06:33:23;;;;;;;6.55;4.50;;;;;;;17.65;96.34;96675.25;4973544;28;21126;-70
2021/08/23 06:35:49;;;;;;;11.25;4.60;;;;;;;17.88;96.64;96671.09;4972791;28;20223;-71
2021/08/23 06:38:16;;;;;;;11.32;5.18;;;;;;;18.13;97.18;96666.66;4973726;28;20211;-70
2021/08/23 06:40:44;;;;;;;8.82;4.88;;;;;;;18.18;96.26;96668.72;4973609;28;20211;-70
2021/08/23 06:43:10;;;;;;;7.60;4.30;;;;;;;17.94;94.57;96664.88;4973604;28;20203;-70
2021/08/23 06:45:37;;;;;;;12.27;4.43;;;;;;;18.22;95.48;96675.28;4973000;28;20726;-70
2021/08/23 06:48:03;;;;;;;8.93;4.63;;;;;;;18.18;95.50;96668.72;4970607;28;20683;-70
2021/08/23 06:50:30;;;;;;;10.50;4.75;;;;;;;18.23;95.85;96669.72;4974353;28;20208;-70
2021/08/23 06:52:56;;;;;;;10.55;4.75;;;;;;;18.31;95.49;96665.97;4973780;28;20690;-70
2021/08/23 06:55:23;;;;;;;8.18;4.30;;;;;;;18.19;94.74;96665.84;4972933;28;20242;-71
2021/08/23 06:57:51;;;;;;;10.90;4.53;;;;;;;18.22;95.81;96664.59;4974351;28;20211;-70
2021/08/23 07:00:17;;;;;;;9.77;5.20;;;;;;;17.89;96.20;96672.69;4974360;28;20212;-70
2021/08/23 07:02:44;;;;;;;9.77;4.28;;;;;;;17.54;96.71;96672.41;4973724;28;20214;-70
2021/08/23 07:05:10;;;;;;;7.90;4.43;;;;;;;17.57;96.34;96667.50;4974972;28;20227;-69
2021/08/23 07:07:37;;;;;;;10.07;4.32;;;;;;;17.58;96.86;96669.13;4976946;28;20735;-72
2021/08/23 07:10:04;;;;;;;8.90;4.10;;;;;;;17.61;97.08;96668.72;4973973;28;20218;-72
2021/08/23 07:12:31;;;;;;;12.27;4.53;;;;;;;17.71;95.99;96675.22;4976999;28;20294;-72
2021/08/23 07:14:59;;;;;;;7.72;4.30;;;;;;;18.04;94.87;96669.78;4976440;28;20230;-72
2021/08/23 07:17:25;;;;;;;6.97;3.92;;;;;;;18.10;95.65;96671.59;4976075;28;20630;-72
2021/08/23 07:19:52;;;;;;;9.20;4.00;;;;;;;17.63;95.64;96673.81;4974224;28;20211;-70
2021/08/23 07:22:19;;;;;;;7.38;4.13;;;;;;;17.48;97.02;96678.59;4978326;28;20214;-71
2021/08/23 07:24:47;;;;;;;6.97;4.28;;;;;;;17.59;97.68;96680.59;4980122;28;20316;-72
2021/08/23 07:27:14;;;;;;;7.75;4.13;;;;;;;17.49;97.65;96675.72;4975976;28;20199;-72
2021/08/23 07:29:41;;;;;;;12.70;5.40;;;;;;;17.85;96.62;96678.69;4977616;28;20203;-72
2021/08/23 07:32:09;;;;;;;8.95;4.28;;;;;;;18.07;96.46;96669.34;4976694;28;20774;-72
2021/08/23 07:34:36;;;;;;;9.88;4.32;;;;;;;17.84;96.65;96667.19;4976171;28;20227;-70
2021/08/23 07:37:02;;;;;;;8.45;4.22;;;;;;;17.93;96.07;96670.44;4976271;28;20203;-70
2021/08/23 07:39:29;;;;;;;7.20;4.07;;;;;;;17.84;96.20;96675.19;4977191;28;20203;-70
2021/08/23 07:41:55;;;;;;;11.73;4.75;;;;;;;17.71;98.16;96673.63;4976397;28;20203;-69
2021/08/23 07:44:22;;;;;;;6.93;4.20;;;;;;;17.88;98.02;96680.91;4973392;28;20230;-70
2021/08/23 07:46:49;;;;;;;8.60;4.03;;;;;;;17.86;97.41;96677.66;4973742;28;20283;-71
2021/08/23 07:49:17;;;;;;;10.95;4.68;;;;;;;18.01;97.24;96680.84;4971362;28;20203;-72
2021/08/23 07:51:44;;;;;;;8.70;4.18;;;;;;;17.86;96.19;96683.00;4974993;28;20282;-68
2021/08/23 07:54:10;;;;;;;6.47;3.60;;;;;;;17.75;96.81;96680.97;4974986;28;20231;-67
2021/08/23 07:56:37;;;;;;;5.50;3.90;;;;;;;17.61;97.14;96683.88;4974558;28;20212;-70
2021/08/23 07:59:04;;;;;;;8.63;4.63;;;;;;;17.73;97.87;96677.69;4975565;28;20207;-72
2021/08/23 08:01:31;;;;;;;6.78;4.18;;;;;;;17.76;98.50;96678.09;4975120;28;20203;-72
2021/08/23 08:03:57;;;;;;;9.05;4.07;;;;;;;17.68;98.13;96676.69;4975183;28;20203;-71
2021/08/23 08:06:25;;;;;;;9.75;4.38;;;;;;;17.85;98.06;96676.00;4973777;28;20222;-72
2021/08/23 08:08:51;;;;;;;9.05;4.32;;;;;;;17.65;98.46;96677.91;4975742;28;20214;-70
2021/08/23 08:11:19;;;;;;;7.30;4.25;;;;;;;17.80;97.54;96673.16;4974931;28;20207;-69
2021/08/23 08:13:46;;;;;;;7.00;3.75;;;;;;;17.59;98.39;96675.28;4975666;28;20212;-68
2021/08/23 08:16:12;;;;;;;10.52;4.20;;;;;;;17.68;98.70;96674.84;4974353;28;20227;-69
2021/08/23 08:18:39;;;;;;;7.30;4.00;;;;;;;17.71;98.37;96677.91;4975750;28;20222;-72
2021/08/23 08:21:05;;;;;;;10.25;4.15;;;;;;;17.82;97.16;96679.13;4972194;28;20249;-70
2021/08/23 08:23:33;;;;;;;9.95;4.20;;;;;;;18.00;97.67;96677.38;4975360;28;20211;-70
2021/08/23 08:26:00;;;;;;;7.32;4.15;;;;;;;18.28;96.95;96677.06;4973607;28;20219;-69
2021/08/23 08:28:26;;;;;;;9.40;4.35;;;;;;;18.02;96.29;96682.50;4975655;28;20206;-69
2021/08/23 08:30:53;;;;;;;8.45;3.80;;;;;;;18.11;96.47;96683.91;4974242;28;20999;-69
2021/08/23 08:33:19;;;;;;;8.02;4.18;;;;;;;18.32;96.45;96683.59;4974969;28;20218;-72
2021/08/23 08:35:46;;;;;;;7.30;3.97;;;;;;;18.25;95.46;96682.84;4974225;28;20699;-70
2021/08/23 08:38:12;;;;;;;8.30;4.20;;;;;;;18.13;95.41;96679.19;4974825;28;20204;-70
2021/08/23 08:40:41;;;;;;;7.05;4.03;;;;;;;18.35;94.75;96692.00;4974154;28;20674;-70
2021/08/23 08:43:07;;;;;;;7.88;4.20;;;;;;;18.45;95.50;96689.69;4974876;28;20207;-70
2021/08/23 08:45:33;;;;;;;6.55;3.65;;;;;;;18.46;93.94;96686.00;4973761;28;20223;-70
2021/08/23 08:48:02;;;;;;;7.70;3.95;;;;;;;18.80;94.13;96690.91;4974147;28;20207;-69
2021/08/23 08:50:30;;;;;;;9.95;3.72;;;;;;;18.83;92.12;96693.97;4975049;28;20204;-70
2021/08/23 08:52:57;;;;;;;8.63;4.05;;;;;;;19.07;93.21;96694.00;4975571;28;20252;-68
2021/08/23 08:55:23;;;;;;;7.60;3.58;;;;;;;18.76;91.79;96690.53;4973624;28;20234;-70
2021/08/23 08:57:51;;;;;;;8.60;3.58;;;;;;;18.91;90.34;96685.66;4974229;28;20199;-70
2021/08/23 09:00:18;;;;;;;7.40;3.72;;;;;;;19.15;91.60;96685.69;4975038;28;20203;-70
2021/08/23 09:02:55;;;;;;;6.47;3.30;;;;;;;19.50;88.59;96681.47;4974418;28;20207;-71
2021/08/23 09:05:22;;;;;;;5.82;2.95;;;;;;;19.20;88.78;96685.06;4973135;28;20699;-70
2021/08/23 09:07:50;;;;;;;7.90;3.30;;;;;;;19.07;89.62;96690.53;4973954;28;20692;-70
2021/08/23 09:10:21;;;;;;;7.57;4.00;;;;;;;19.30;89.47;96686.19;4974482;28;20210;-70
2021/08/23 09:12:58;;;;;;;6.78;3.28;;;;;;;18.99;89.50;96696.91;4973212;28;20210;-70
2021/08/23 09:15:26;;;;;;;8.10;3.60;;;;;;;19.26;89.02;96694.88;4974111;28;20234;-70
2021/08/23 09:18:02;;;;;;;8.18;3.60;;;;;;;19.46;89.18;96700.84;4974199;28;20199;-69
2021/08/23 09:20:28;;;;;;;8.38;3.88;;;;;;;19.08;89.91;96702.81;4971953;28;20215;-69
2021/08/23 09:22:55;;;;;;;7.57;3.72;;;;;;;19.23;89.97;96703.31;4973892;28;21108;-69
2021/08/23 09:25:25;;;;;;;8.85;3.80;;;;;;;19.45;89.60;96700.03;4974038;28;20220;-70
2021/08/23 09:28:02;;;;;;;8.20;3.75;;;;;;;19.48;87.69;96704.13;4972918;28;20729;-70
2021/08/23 09:30:30;;;;;;;8.43;3.28;;;;;;;19.23;88.27;96706.00;4974081;28;20207;-69
2021/08/23 09:32:58;;;;;;;8.27;3.38;;;;;;;19.46;88.62;96706.19;4973976;28;20701;-69
2021/08/23 09:35:28;;;;;;;6.68;3.60;;;;;;;19.66;87.49;96700.41;4972043;28;20243;-69
2021/08/23 09:37:55;;;;;;;9.48;3.47;;;;;;;19.30;86.26;96696.06;4973647;28;20211;-67
2021/08/23 09:40:26;;;;;;;5.05;3.55;;;;;;;19.15;89.67;96695.59;4973652;28;20958;-67
2021/08/23 09:42:58;;;;;;;6.68;3.75;;;;;;;19.43;91.26;96691.41;4973380;28;20214;-68
2021/08/23 09:45:25;;;;;;;8.05;3.60;;;;;;;19.31;88.87;96692.34;4973082;28;20227;-70
2021/08/23 09:48:00;;;;;;;7.72;4.15;;;;;;;19.86;89.87;96693.00;4973422;28;20219;-69
2021/08/23 09:50:27;;;;;;;7.72;3.63;;;;;;;19.52;91.22;96695.44;4973110;28;20206;-70
2021/08/23 09:52:53;;;;;;;10.63;3.60;;;;;;;19.68;89.28;96690.31;4973465;28;20203;-70
2021/08/23 09:55:20;;;;;;;8.18;3.03;;;;;;;19.23;88.57;96681.94;4971815;28;20223;-70
2021/08/23 09:57:47;;;;;;;10.20;3.25;;;;;;;19.15;91.49;96691.03;4972930;28;20218;-70
2021/08/23 10:00:14;;;;;;;4.82;2.80;;;;;;;18.75;92.08;96690.72;4973571;28;20593;-72
2021/08/23 10:02:45;;;;;;;5.05;2.30;;;;;;;18.66;93.67;96692.84;4974122;28;20210;-72
2021/08/23 10:05:16;;;;;;;8.65;3.58;;;;;;;19.23;92.76;96689.97;4972670;28;20215;-72
2021/08/23 10:07:43;;;;;;;9.85;3.42;;;;;;;19.42;91.30;96705.00;4973553;28;20208;-72
2021/08/23 10:10:11;;;;;;;9.20;3.78;;;;;;;19.21;93.08;96697.38;4973365;28;20203;-72
2021/08/23 10:12:38;;;;;;;10.43;4.30;;;;;;;19.43;93.34;96695.94;4973289;28;20222;-72
2021/08/23 10:15:06;;;;;;;6.75;3.63;;;;;;;19.27;91.55;96697.31;4973119;28;20235;-72
2021/08/23 10:17:36;;;;;;;5.80;3.40;;;;;;;19.59;90.40;96698.88;4972543;28;20215;-70
2021/08/23 10:20:04;;;;;;;9.30;3.55;;;;;;;19.50;91.59;96689.50;4973649;28;20211;-70
2021/08/23 10:22:33;;;;;;;6.15;3.45;;;;;;;19.58;90.40;96687.34;4972765;28;20207;-69
2021/08/23 10:25:00;;;;;;;7.63;3.45;;;;;;;19.32;91.39;96691.31;4973084;28;20242;-72
2021/08/23 10:27:27;;;;;;;7.18;3.45;;;;;;;19.62;92.25;96687.72;4970025;28;20206;-72
2021/08/23 10:29:53;;;;;;;7.65;3.53;;;;;;;19.57;90.94;96688.38;4972583;28;20210;-72
2021/08/23 10:32:20;;;;;;;6.40;3.60;;;;;;;19.45;91.64;96685.84;4972720;28;20619;-70
2021/08/23 10:34:46;;;;;;;6.68;3.60;;;;;;;19.34;90.22;96683.91;4974370;28;20238;-70
2021/08/23 10:37:23;;;;;;;8.10;3.35;;;;;;;19.39;92.71;96684.06;4972144;28;20298;-70
2021/08/23 10:40:00;;;;;;;9.02;3.80;;;;;;;19.49;91.17;96681.69;4974173;28;20218;-70
2021/08/23 10:42:37;;;;;;;7.85;3.35;;;;;;;19.11;91.22;96683.69;4977482;28;20305;-70
2021/08/23 10:45:06;;;;;;;14.00;3.80;;;;;;;19.46;92.63;96680.25;4976363;28;20243;-70
2021/08/23 10:47:32;;;;;;;8.45;4.63;;;;;;;19.53;93.62;96680.22;4976171;28;20203;-70
2021/08/23 10:49:59;;;;;;;8.68;3.70;;;;;;;19.28;91.66;96676.75;4976363;28;20199;-70
2021/08/23 10:52:33;;;;;;;7.10;3.90;;;;;;;19.54;89.90;96682.69;4977702;28;20214;-71
2021/08/23 10:55:01;;;;;;;6.15;3.63;;;;;;;19.44;92.54;96670.84;4976424;28;20230;-71
2021/08/23 10:57:28;;;;;;;7.43;3.83;;;;;;;19.32;93.06;96673.44;4977223;28;20203;-70
2021/08/23 10:59:56;;;;;;;8.00;3.17;;;;;;;19.62;91.57;96671.69;4975688;28;20211;-70
2021/08/23 11:02:31;;;;;;;8.57;4.13;;;;;;;19.80;91.54;96672.50;4977328;28;20222;-70
2021/08/23 11:05:01;;;;;;;10.77;4.25;;;;;;;19.63;91.25;96667.97;4979104;28;21092;-70
2021/08/23 11:07:28;;;;;;;8.27;4.72;;;;;;;20.04;91.51;96657.44;4975790;28;20207;-70
2021/08/23 11:10:05;;;;;;;11.45;4.22;;;;;;;20.38;89.08;96657.59;4977084;28;20207;-70
2021/08/23 11:12:41;;;;;;;9.00;4.35;;;;;;;20.51;87.98;96657.41;4978205;28;20218;-70
2021/08/23 11:15:18;;;;;;;9.02;4.25;;;;;;;20.64;88.54;96660.69;4976500;28;20231;-70
2021/08/23 11:17:46;;;;;;;8.85;4.13;;;;;;;20.00;90.81;96667.75;4977257;28;20355;-70
2021/08/23 11:20:18;;;;;;;6.78;3.92;;;;;;;20.19;89.48;96672.06;4978068;28;20207;-70
2021/08/23 11:22:51;;;;;;;9.98;4.32;;;;;;;20.31;89.88;96659.53;4977925;28;20207;-70
2021/08/23 11:25:26;;;;;;;7.95;4.22;;;;;;;20.04;89.70;96668.13;4975573;28;20234;-70
2021/08/23 11:27:52;;;;;;;8.20;3.88;;;;;;;20.04;89.48;96668.94;4973994;28;20203;-70
2021/08/23 11:30:27;;;;;;;10.25;3.65;;;;;;;19.79;88.19;96676.22;4974740;28;20699;-70
2021/08/23 11:32:54;;;;;;;7.20;2.63;;;;;;;19.10;89.99;96668.69;4975670;28;20199;-70